Time;durP1;ratioP1;P1;durP2;ratioP2;P2;SDS_P1;SDS_P2;PMS_P1;PMS_P2;Temp;Humidity;BMP_temperature;BMP_pressure;BME280_temperature;BME280_humidity;BME280_pressure;Samples;Min_cycle;Max_cycle;Signal;HPM_P1;HPM_P2
2022/02/28 00:00:23;;;;;;;2.08;1.55;;;16.90;64.50;;;;;;5072193;28;20056;-21
2022/02/28 00:02:48;;;;;;;1.88;1.77;;;16.90;64.20;;;;;;5057022;28;20052;-21
2022/02/28 00:05:14;;;;;;;2.00;1.90;;;16.90;64.40;;;;;;5065845;28;20109;-21
2022/02/28 00:07:40;;;;;;;1.83;1.73;;;16.90;64.60;;;;;;5072494;28;20063;-21
2022/02/28 00:10:06;;;;;;;1.55;1.42;;;16.90;64.50;;;;;;5066674;28;20045;-21
2022/02/28 00:12:32;;;;;;;1.90;1.80;;;16.80;64.30;;;;;;5068313;28;20052;-21
2022/02/28 00:14:58;;;;;;;2.03;1.92;;;16.90;64.30;;;;;;5063270;28;20040;-21
2022/02/28 00:17:23;;;;;;;1.90;1.80;;;16.90;64.20;;;;;;5069892;28;20028;-21
2022/02/28 00:19:49;;;;;;;2.38;1.70;;;16.90;64.40;;;;;;5062762;28;20059;-21
2022/02/28 00:22:14;;;;;;;1.92;1.73;;;16.90;64.20;;;;;;5056253;28;20037;-21
2022/02/28 00:24:40;;;;;;;1.85;1.70;;;16.80;64.20;;;;;;5057205;28;20040;-21
2022/02/28 00:27:05;;;;;;;2.83;1.70;;;16.80;64.20;;;;;;5067539;28;20480;-21
2022/02/28 00:29:31;;;;;;;1.90;1.80;;;16.80;64.30;;;;;;5071606;28;20051;-21
2022/02/28 00:31:57;;;;;;;1.80;1.70;;;16.80;64.20;;;;;;5067945;28;20157;-21
2022/02/28 00:34:22;;;;;;;2.17;1.67;;;16.80;64.10;;;;;;5070151;28;20059;-21
2022/02/28 00:36:48;;;;;;;2.03;1.92;;;16.80;64.40;;;;;;5071364;28;20036;-21
2022/02/28 00:39:13;;;;;;;1.95;1.85;;;16.80;64.20;;;;;;5059195;28;20063;-21
2022/02/28 00:41:39;;;;;;;1.67;1.58;;;16.80;65.10;;;;;;5064496;28;20048;-21
2022/02/28 00:44:05;;;;;;;2.58;1.90;;;16.80;64.10;;;;;;5080948;28;20048;-21
2022/02/28 00:46:30;;;;;;;1.90;1.80;;;16.90;64.30;;;;;;5065720;28;20037;-21
2022/02/28 00:48:56;;;;;;;2.15;2.00;;;16.80;64.20;;;;;;5051512;28;20421;-21
2022/02/28 00:51:21;;;;;;;1.92;1.83;;;16.80;64.20;;;;;;5064818;28;20093;-21
2022/02/28 00:53:47;;;;;;;2.15;2.00;;;16.90;64.20;;;;;;5070043;28;20067;-21
2022/02/28 00:56:12;;;;;;;1.65;1.55;;;16.80;64.00;;;;;;5070410;28;20131;-21
2022/02/28 00:58:38;;;;;;;1.58;1.42;;;16.80;64.10;;;;;;5070079;28;20329;-21
2022/02/28 01:01:04;;;;;;;1.70;1.60;;;16.80;63.80;;;;;;5071810;28;20040;-21
2022/02/28 01:03:29;;;;;;;1.60;1.50;;;16.80;64.00;;;;;;5063686;28;20045;-21
2022/02/28 01:05:55;;;;;;;1.63;1.52;;;16.80;64.00;;;;;;5058370;28;20052;-21
2022/02/28 01:08:21;;;;;;;2.38;2.10;;;16.80;64.00;;;;;;5071359;28;20044;-21
2022/02/28 01:10:47;;;;;;;1.83;1.63;;;16.80;64.00;;;;;;5056617;28;20561;-21
2022/02/28 01:13:13;;;;;;;2.22;1.90;;;16.80;64.20;;;;;;5051811;28;20461;-21
2022/02/28 01:15:38;;;;;;;1.70;1.60;;;16.80;64.00;;;;;;5056315;28;20074;-21
2022/02/28 01:18:04;;;;;;;1.83;1.73;;;16.80;64.00;;;;;;5064878;28;20117;-21
2022/02/28 01:20:30;;;;;;;2.10;2.00;;;16.80;63.90;;;;;;5070998;28;20055;-21
2022/02/28 01:22:56;;;;;;;3.22;1.80;;;16.70;64.10;;;;;;5068074;28;20417;-21
2022/02/28 01:25:21;;;;;;;1.60;1.50;;;16.80;64.00;;;;;;5061449;28;20128;-21
2022/02/28 01:27:47;;;;;;;1.70;1.60;;;16.80;64.00;;;;;;5061992;28;20505;-21
2022/02/28 01:30:12;;;;;;;1.70;1.60;;;16.80;64.00;;;;;;5061931;28;20048;-21
2022/02/28 01:32:38;;;;;;;2.00;1.90;;;16.80;63.90;;;;;;5061935;28;20041;-21
2022/02/28 01:35:06;;;;;;;1.63;1.52;;;16.80;63.80;;;;;;5067685;28;20072;-21
2022/02/28 01:37:31;;;;;;;4.10;1.73;;;16.90;63.80;;;;;;5067980;28;20064;-21
2022/02/28 01:39:57;;;;;;;1.80;1.70;;;16.80;63.70;;;;;;5064266;28;20083;-21
2022/02/28 01:42:22;;;;;;;1.70;1.60;;;16.80;63.80;;;;;;5070571;28;20052;-21
2022/02/28 01:44:48;;;;;;;1.73;1.63;;;16.80;64.00;;;;;;5071014;28;20166;-21
2022/02/28 01:47:13;;;;;;;3.35;1.63;;;16.70;64.00;;;;;;5063965;28;20044;-21
2022/02/28 01:49:39;;;;;;;1.70;1.60;;;16.80;63.80;;;;;;5070643;28;20590;-21
2022/02/28 01:52:05;;;;;;;1.60;1.50;;;16.80;63.90;;;;;;5067646;28;20048;-21
2022/02/28 01:54:31;;;;;;;1.67;1.58;;;16.70;63.90;;;;;;5072918;28;20424;-21
2022/02/28 01:56:57;;;;;;;1.63;1.52;;;16.80;63.80;;;;;;5071985;28;20044;-21
2022/02/28 01:59:22;;;;;;;1.60;1.48;;;16.80;63.90;;;;;;5062821;28;20098;-22
2022/02/28 02:01:48;;;;;;;1.48;1.38;;;16.80;63.90;;;;;;5064026;28;20059;-21
2022/02/28 02:04:14;;;;;;;1.70;1.60;;;16.70;64.00;;;;;;5066520;28;20579;-21
2022/02/28 02:06:39;;;;;;;1.15;1.15;;;16.80;63.90;;;;;;5066103;28;20446;-21
2022/02/28 02:09:05;;;;;;;1.80;1.70;;;16.80;63.60;;;;;;5067527;28;20064;-21
2022/02/28 02:11:31;;;;;;;1.67;1.58;;;16.80;63.60;;;;;;5066285;28;20175;-21
2022/02/28 02:13:57;;;;;;;1.50;1.40;;;16.80;63.60;;;;;;5066922;28;20414;-21
2022/02/28 02:16:23;;;;;;;1.88;1.77;;;16.80;63.60;;;;;;5071559;28;20048;-21
2022/02/28 02:18:49;;;;;;;1.70;1.60;;;16.70;63.60;;;;;;5073965;28;20071;-21
2022/02/28 02:21:14;;;;;;;1.42;1.33;;;16.70;63.50;;;;;;5076818;28;20037;-21
2022/02/28 02:23:41;;;;;;;1.50;1.40;;;16.70;63.60;;;;;;5062411;28;20356;-21
2022/02/28 02:26:09;;;;;;;1.40;1.30;;;16.70;63.60;;;;;;5068263;28;20053;-21
2022/02/28 02:28:36;;;;;;;1.45;1.35;;;16.70;63.60;;;;;;5066204;28;20135;-21
2022/02/28 02:31:04;;;;;;;1.52;1.42;;;16.70;63.70;;;;;;5063743;28;20037;-21
2022/02/28 02:33:29;;;;;;;1.60;1.50;;;16.70;63.70;;;;;;5064501;28;20068;-21
2022/02/28 02:35:56;;;;;;;1.63;1.52;;;16.70;63.80;;;;;;5068161;28;20076;-21
2022/02/28 02:38:23;;;;;;;1.50;1.40;;;16.70;63.60;;;;;;5066220;28;20045;-21
2022/02/28 02:40:49;;;;;;;1.52;1.42;;;16.70;63.60;;;;;;5065392;28;20494;-21
2022/02/28 02:43:14;;;;;;;1.30;1.20;;;16.70;63.50;;;;;;5065731;28;20068;-21
2022/02/28 02:45:40;;;;;;;1.55;1.45;;;16.70;63.70;;;;;;5064154;28;20061;-21
2022/02/28 02:48:24;;;;;;;2.33;1.35;;;16.70;63.40;;;;;;5067210;28;20052;-21
2022/02/28 02:50:50;;;;;;;;;;;16.70;63.40;;;;;;5072142;28;20055;-21
2022/02/28 02:53:15;;;;;;;1.50;1.40;;;16.70;63.60;;;;;;5068346;28;19924;-21
2022/02/28 02:55:41;;;;;;;1.60;1.50;;;16.70;63.30;;;;;;5067553;28;20051;-21
2022/02/28 02:58:07;;;;;;;1.80;1.70;;;16.70;63.60;;;;;;5066982;28;20498;-21
2022/02/28 03:00:33;;;;;;;1.70;1.60;;;16.70;63.60;;;;;;5067320;28;20041;-21
2022/02/28 03:02:59;;;;;;;1.55;1.45;;;16.70;63.70;;;;;;5072341;28;20049;-21
2022/02/28 03:05:24;;;;;;;1.60;1.50;;;16.60;63.60;;;;;;5066011;28;20063;-21
2022/02/28 03:07:50;;;;;;;1.38;1.30;;;16.70;63.60;;;;;;5066891;28;20048;-21
2022/02/28 03:10:16;;;;;;;1.63;1.40;;;16.60;63.50;;;;;;5066950;28;20037;-21
2022/02/28 03:12:42;;;;;;;1.67;1.58;;;16.70;63.60;;;;;;5067825;28;20068;-21
2022/02/28 03:15:07;;;;;;;2.15;1.42;;;16.70;63.40;;;;;;5064415;28;20037;-21
2022/02/28 03:17:33;;;;;;;1.45;1.35;;;16.70;63.20;;;;;;5065184;28;20064;-21
2022/02/28 03:19:59;;;;;;;1.83;1.70;;;16.70;63.00;;;;;;5069857;28;20036;-21
2022/02/28 03:22:25;;;;;;;1.60;1.50;;;16.70;63.00;;;;;;5071115;28;20547;-21
2022/02/28 03:24:51;;;;;;;1.50;1.40;;;16.70;62.90;;;;;;5067112;28;20111;-21
2022/02/28 03:27:17;;;;;;;1.63;1.52;;;16.70;62.80;;;;;;5068292;28;20029;-22
2022/02/28 03:29:43;;;;;;;2.00;1.90;;;16.70;62.80;;;;;;5066136;28;20512;-21
2022/02/28 03:32:08;;;;;;;1.52;1.42;;;16.70;62.80;;;;;;5065887;28;20049;-21
2022/02/28 03:34:34;;;;;;;1.40;1.30;;;16.70;62.80;;;;;;5066582;28;20127;-21
2022/02/28 03:36:59;;;;;;;1.80;1.70;;;16.70;62.80;;;;;;5069317;28;20048;-21
2022/02/28 03:39:25;;;;;;;1.77;1.40;;;16.70;62.70;;;;;;5068253;28;20075;-21
2022/02/28 03:41:53;;;;;;;1.50;1.40;;;16.70;62.80;;;;;;5064647;28;20033;-21
2022/02/28 03:44:20;;;;;;;1.75;1.55;;;16.70;62.80;;;;;;5067267;28;20040;-21
2022/02/28 03:46:45;;;;;;;1.80;1.70;;;16.70;62.80;;;;;;5065690;28;20033;-21
2022/02/28 03:49:11;;;;;;;1.63;1.52;;;16.70;62.80;;;;;;5065148;28;20048;-21
2022/02/28 03:51:36;;;;;;;1.70;1.60;;;16.70;62.80;;;;;;5064770;28;20045;-21
2022/02/28 03:54:02;;;;;;;1.80;1.70;;;16.70;62.80;;;;;;5066754;28;20053;-21
2022/02/28 03:56:27;;;;;;;1.75;1.40;;;16.70;62.80;;;;;;5071220;28;20468;-21
2022/02/28 03:58:53;;;;;;;2.10;1.63;;;16.70;62.70;;;;;;5064403;28;20045;-22
2022/02/28 04:01:19;;;;;;;1.60;1.50;;;16.60;62.80;;;;;;5063394;28;20040;-21
2022/02/28 04:03:44;;;;;;;1.33;1.23;;;16.60;62.80;;;;;;5068274;28;20144;-21
2022/02/28 04:06:10;;;;;;;1.75;1.65;;;16.60;62.80;;;;;;5069531;28;20051;-21
2022/02/28 04:08:36;;;;;;;1.50;1.40;;;16.60;62.70;;;;;;5060089;28;20045;-21
2022/02/28 04:11:02;;;;;;;2.20;1.48;;;16.60;62.80;;;;;;5063149;28;20098;-21
2022/02/28 04:13:27;;;;;;;1.20;1.10;;;16.60;62.90;;;;;;5056266;28;20053;-21
2022/02/28 04:15:53;;;;;;;1.60;1.50;;;16.60;62.70;;;;;;5065789;28;20066;-25
2022/02/28 04:18:18;;;;;;;1.50;1.40;;;16.60;62.70;;;;;;5057204;28;20075;-21
2022/02/28 04:20:47;;;;;;;2.55;1.60;;;16.60;62.70;;;;;;5072321;28;20045;-21
2022/02/28 04:23:12;;;;;;;2.08;1.92;;;16.60;62.70;;;;;;5058423;28;20498;-21
2022/02/28 04:25:38;;;;;;;1.60;1.50;;;16.60;62.70;;;;;;5064114;28;20386;-21
2022/02/28 04:28:03;;;;;;;7.88;1.60;;;16.60;62.80;;;;;;5058009;28;20049;-23
2022/02/28 04:30:29;;;;;;;2.22;1.48;;;16.60;62.80;;;;;;5070935;28;20047;-21
2022/02/28 04:32:55;;;;;;;1.55;1.45;;;16.60;62.70;;;;;;5065147;28;20049;-21
2022/02/28 04:35:20;;;;;;;1.88;1.50;;;16.60;62.70;;;;;;5062384;28;20039;-21
2022/02/28 04:37:46;;;;;;;2.03;1.88;;;16.60;62.60;;;;;;5074878;28;20093;-22
2022/02/28 04:40:12;;;;;;;1.63;1.50;;;16.60;62.60;;;;;;5062446;28;20059;-21
2022/02/28 04:42:38;;;;;;;1.58;1.48;;;16.60;62.60;;;;;;5067244;28;20051;-21
2022/02/28 04:45:05;;;;;;;1.60;1.40;;;16.50;62.70;;;;;;5070381;28;20041;-21
2022/02/28 04:47:30;;;;;;;1.80;1.70;;;16.50;62.70;;;;;;5055777;28;20051;-21
2022/02/28 04:49:57;;;;;;;1.52;1.42;;;16.60;62.70;;;;;;5054807;28;20048;-21
2022/02/28 04:52:22;;;;;;;1.75;1.30;;;16.50;62.80;;;;;;5055314;28;20127;-21
2022/02/28 04:54:48;;;;;;;1.20;1.20;;;16.50;62.70;;;;;;5054987;28;20075;-21
2022/02/28 04:57:13;;;;;;;1.13;1.13;;;16.60;62.70;;;;;;5055454;28;20048;-21
2022/02/28 04:59:39;;;;;;;1.20;1.10;;;16.50;62.80;;;;;;5054807;28;20045;-21
2022/02/28 05:02:05;;;;;;;1.48;1.38;;;16.50;62.60;;;;;;5055273;28;20041;-21
2022/02/28 05:04:31;;;;;;;1.40;1.38;;;16.50;62.60;;;;;;5060523;28;20052;-21
2022/02/28 05:06:56;;;;;;;1.50;1.40;;;16.60;62.60;;;;;;5060354;28;20064;-21
2022/02/28 05:09:22;;;;;;;1.45;1.35;;;16.50;62.70;;;;;;5055220;28;20033;-21
2022/02/28 05:11:48;;;;;;;1.48;1.38;;;16.50;62.60;;;;;;5054643;28;20051;-21
2022/02/28 05:14:14;;;;;;;1.50;1.40;;;16.50;62.70;;;;;;5055411;28;20135;-21
2022/02/28 05:16:41;;;;;;;1.17;1.17;;;16.50;62.70;;;;;;5054433;28;20134;-23
2022/02/28 05:19:07;;;;;;;1.50;1.40;;;16.50;62.60;;;;;;5060434;28;20052;-21
2022/02/28 05:21:33;;;;;;;1.85;1.75;;;16.50;62.60;;;;;;5068267;28;20044;-21
2022/02/28 05:23:59;;;;;;;1.08;1.08;;;16.50;62.60;;;;;;5066326;28;20052;-21
2022/02/28 05:26:25;;;;;;;1.55;1.45;;;16.50;62.60;;;;;;5072888;28;20044;-21
2022/02/28 05:28:50;;;;;;;1.30;1.20;;;16.50;62.60;;;;;;5064914;28;20045;-21
2022/02/28 05:31:16;;;;;;;1.35;1.25;;;16.50;62.60;;;;;;5066746;28;20041;-22
2022/02/28 05:33:41;;;;;;;1.58;1.48;;;16.50;62.70;;;;;;5059935;28;20055;-21
2022/02/28 05:36:07;;;;;;;1.45;1.35;;;16.40;62.80;;;;;;5073895;28;20044;-22
2022/02/28 05:38:32;;;;;;;1.98;1.40;;;16.40;62.80;;;;;;5067036;28;20071;-21
2022/02/28 05:40:59;;;;;;;1.40;1.30;;;16.50;62.80;;;;;;5059664;28;20059;-21
2022/02/28 05:43:24;;;;;;;1.20;1.20;;;16.50;62.80;;;;;;5074449;28;20131;-21
2022/02/28 05:45:51;;;;;;;1.10;1.10;;;16.50;62.80;;;;;;5074797;28;20815;-21
2022/02/28 05:48:16;;;;;;;1.10;1.10;;;16.50;63.50;;;;;;5075369;28;20086;-21
2022/02/28 05:50:42;;;;;;;1.25;1.25;;;16.50;62.70;;;;;;5059088;28;20044;-21
2022/02/28 05:53:08;;;;;;;1.52;1.42;;;16.40;62.70;;;;;;5055352;28;20052;-21
2022/02/28 05:55:36;;;;;;;1.20;1.10;;;16.40;62.70;;;;;;5055388;28;20041;-21
2022/02/28 05:58:02;;;;;;;1.17;1.15;;;16.40;62.70;;;;;;5054748;28;20095;-21
2022/02/28 06:00:27;;;;;;;1.58;1.48;;;16.40;62.70;;;;;;5055314;28;20139;-21
2022/02/28 06:02:53;;;;;;;1.35;1.30;;;16.40;62.80;;;;;;5054655;28;20071;-21
2022/02/28 06:05:19;;;;;;;1.00;1.00;;;16.40;62.80;;;;;;5055260;28;20045;-21
2022/02/28 06:07:45;;;;;;;1.30;1.15;;;16.40;62.70;;;;;;5054605;28;20055;-21
2022/02/28 06:10:10;;;;;;;1.50;1.40;;;16.40;62.70;;;;;;5054188;28;20044;-21
2022/02/28 06:12:36;;;;;;;1.20;1.10;;;16.40;62.80;;;;;;5055201;28;20060;-21
2022/02/28 06:15:01;;;;;;;1.23;1.20;;;16.40;62.60;;;;;;5054940;28;20127;-21
2022/02/28 06:17:27;;;;;;;1.15;1.15;;;16.40;62.70;;;;;;5055115;28;20124;-21
2022/02/28 06:19:53;;;;;;;1.35;1.25;;;16.30;62.80;;;;;;5054272;28;20414;-21
2022/02/28 06:22:18;;;;;;;1.35;1.25;;;16.40;62.80;;;;;;5055326;28;20132;-21
2022/02/28 06:24:44;;;;;;;1.13;1.13;;;16.30;62.80;;;;;;5054499;28;20564;-22
2022/02/28 06:27:09;;;;;;;0.93;0.93;;;16.40;62.80;;;;;;5055189;28;20071;-21
2022/02/28 06:29:35;;;;;;;1.10;1.10;;;16.40;62.80;;;;;;5055079;28;20049;-21
2022/02/28 06:32:00;;;;;;;1.45;1.35;;;16.40;62.80;;;;;;5054298;28;20113;-21
2022/02/28 06:34:31;;;;;;;1.48;1.38;;;16.40;62.70;;;;;;5054866;28;20049;-21
2022/02/28 06:36:57;;;;;;;1.10;1.10;;;16.40;62.70;;;;;;5073299;28;20071;-21
2022/02/28 06:39:23;;;;;;;1.10;1.10;;;16.40;62.70;;;;;;5076286;28;20060;-21
2022/02/28 06:41:48;;;;;;;1.25;1.15;;;16.40;62.70;;;;;;5070130;28;20508;-21
2022/02/28 06:44:14;;;;;;;1.20;1.20;;;16.40;62.70;;;;;;5074279;28;20102;-21
2022/02/28 06:46:39;;;;;;;1.08;1.08;;;16.30;62.70;;;;;;5058113;28;20540;-21
2022/02/28 06:49:05;;;;;;;1.33;1.23;;;16.30;62.70;;;;;;5058382;28;20045;-21
2022/02/28 06:51:30;;;;;;;1.92;1.65;;;16.30;63.00;;;;;;4716736;28;9999837;-21
2022/02/28 06:53:56;;;;;;;5.00;1.42;;;16.30;63.20;;;;;;5068445;28;20044;-21
2022/02/28 06:56:21;;;;;;;6.75;1.60;;;16.40;63.50;;;;;;5073783;28;20581;-22
2022/02/28 06:58:47;;;;;;;3.63;1.42;;;16.30;63.30;;;;;;5071403;28;20044;-21
2022/02/28 07:01:13;;;;;;;6.40;1.60;;;16.30;63.20;;;;;;5074426;28;20497;-21
2022/02/28 07:03:38;;;;;;;3.13;1.88;;;16.30;63.30;;;;;;5068842;28;20052;-21
2022/02/28 07:06:04;;;;;;;6.57;1.90;;;16.30;63.30;;;;;;5070800;28;20729;-22
2022/02/28 07:08:30;;;;;;;3.50;1.77;;;16.30;63.70;;;;;;5073277;28;20049;-21
2022/02/28 07:10:56;;;;;;;7.68;2.28;;;16.30;63.60;;;;;;5069550;28;20498;-21
2022/02/28 07:13:24;;;;;;;4.22;1.98;;;16.30;63.70;;;;;;5072054;28;20051;-21
2022/02/28 07:15:49;;;;;;;6.55;2.10;;;16.30;63.70;;;;;;5072191;28;20052;-21
2022/02/28 07:18:15;;;;;;;1.98;1.80;;;16.30;63.40;;;;;;5073919;28;20053;-21
2022/02/28 07:20:41;;;;;;;5.28;1.58;;;16.40;63.20;;;;;;5073083;28;20171;-21
2022/02/28 07:23:06;;;;;;;3.38;2.08;;;16.40;63.10;;;;;;5067317;28;20127;-21
2022/02/28 07:25:32;;;;;;;3.15;1.50;;;16.40;63.20;;;;;;5072045;28;20045;-21
2022/02/28 07:27:58;;;;;;;4.45;1.88;;;16.40;63.00;;;;;;5073427;28;20127;-21
2022/02/28 07:30:24;;;;;;;3.63;2.05;;;16.40;63.00;;;;;;5069715;28;20481;-21
2022/02/28 07:32:49;;;;;;;4.25;2.00;;;16.40;62.80;;;;;;5070675;28;20363;-21
2022/02/28 07:35:15;;;;;;;5.28;2.47;;;16.60;63.40;;;;;;5077030;28;20056;-22
2022/02/28 07:37:41;;;;;;;2.25;2.03;;;16.50;63.00;;;;;;5057816;28;20260;-21
2022/02/28 07:40:09;;;;;;;2.92;2.63;;;16.50;63.20;;;;;;5075753;28;20092;-21
2022/02/28 07:42:35;;;;;;;7.22;2.70;;;16.50;63.20;;;;;;5060905;28;20160;-21
2022/02/28 07:45:01;;;;;;;6.22;2.75;;;16.50;63.30;;;;;;5052076;28;20135;-21
2022/02/28 07:47:27;;;;;;;5.50;2.65;;;16.60;63.50;;;;;;5044075;28;20053;-21
2022/02/28 07:49:52;;;;;;;4.35;2.80;;;16.60;63.10;;;;;;5051883;28;20110;-21
2022/02/28 07:52:18;;;;;;;3.08;2.60;;;16.60;63.20;;;;;;5045733;28;20049;-22
2022/02/28 07:54:43;;;;;;;3.38;2.78;;;16.60;63.20;;;;;;5041116;28;20491;-22
2022/02/28 07:57:09;;;;;;;3.67;2.63;;;16.60;63.00;;;;;;5041205;28;20106;-21
2022/02/28 07:59:34;;;;;;;2.65;2.53;;;16.60;63.30;;;;;;5042771;28;20048;-21
2022/02/28 08:02:00;;;;;;;3.83;2.35;;;16.70;62.90;;;;;;5042602;28;20048;-21
2022/02/28 08:04:26;;;;;;;3.28;2.38;;;16.70;62.80;;;;;;5046677;28;20056;-21
2022/02/28 08:06:51;;;;;;;3.92;2.95;;;16.70;62.90;;;;;;5047282;28;20049;-21
2022/02/28 08:09:18;;;;;;;6.25;3.00;;;16.70;62.90;;;;;;5046487;28;20164;-21
2022/02/28 08:11:44;;;;;;;4.18;2.40;;;16.80;62.70;;;;;;5042529;28;20051;-21
2022/02/28 08:14:09;;;;;;;4.10;2.35;;;16.90;62.50;;;;;;5054059;28;20049;-21
2022/02/28 08:16:35;;;;;;;4.78;2.72;;;16.90;62.40;;;;;;5045222;28;20067;-21
2022/02/28 08:19:00;;;;;;;3.70;2.47;;;16.90;62.20;;;;;;5046726;28;20060;-21
2022/02/28 08:21:26;;;;;;;4.13;3.03;;;16.90;62.30;;;;;;5050372;28;20101;-21
2022/02/28 08:23:52;;;;;;;5.85;2.70;;;17.00;62.20;;;;;;5047621;28;20052;-21
2022/02/28 08:26:17;;;;;;;2.67;2.20;;;17.00;61.80;;;;;;5040043;28;20075;-21
2022/02/28 08:28:43;;;;;;;3.33;2.53;;;17.00;61.80;;;;;;5041499;28;20049;-21
2022/02/28 08:31:08;;;;;;;5.82;3.00;;;17.10;61.60;;;;;;5041329;28;20634;-21
2022/02/28 08:33:34;;;;;;;3.30;2.50;;;17.10;61.60;;;;;;5042194;28;20096;-21
2022/02/28 08:36:00;;;;;;;2.60;2.40;;;17.10;61.40;;;;;;5043069;28;20106;-21
2022/02/28 08:38:25;;;;;;;2.78;2.50;;;17.20;61.20;;;;;;5042500;28;20048;-21
2022/02/28 08:40:51;;;;;;;2.30;2.05;;;17.20;61.30;;;;;;5044843;28;20056;-21
2022/02/28 08:43:16;;;;;;;3.15;2.42;;;17.20;61.30;;;;;;5047268;28;20067;-21
2022/02/28 08:45:42;;;;;;;3.20;2.17;;;17.20;61.20;;;;;;5048603;28;20565;-21
2022/02/28 08:48:08;;;;;;;2.15;1.95;;;17.20;61.00;;;;;;5047513;28;20080;-21
2022/02/28 08:50:33;;;;;;;2.25;2.05;;;17.20;61.10;;;;;;5055355;28;20140;-21
2022/02/28 08:52:59;;;;;;;3.72;2.20;;;17.20;61.00;;;;;;5051786;28;20055;-21
2022/02/28 08:55:25;;;;;;;2.10;1.88;;;17.30;61.00;;;;;;5048265;28;20041;-21
2022/02/28 08:57:51;;;;;;;2.47;2.28;;;17.30;61.00;;;;;;5050345;28;20049;-21
2022/02/28 09:00:16;;;;;;;2.58;2.00;;;17.30;60.90;;;;;;5049982;28;20059;-21
2022/02/28 09:02:42;;;;;;;2.15;1.95;;;17.30;60.90;;;;;;5050034;28;20060;-21
2022/02/28 09:05:08;;;;;;;3.17;2.00;;;17.30;60.70;;;;;;5047481;28;20060;-21
2022/02/28 09:07:34;;;;;;;1.90;1.80;;;17.30;60.90;;;;;;5051376;28;20423;-21
2022/02/28 09:10:00;;;;;;;1.90;1.80;;;17.30;60.70;;;;;;5048800;28;20060;-21
2022/02/28 09:12:25;;;;;;;2.10;2.00;;;17.30;60.80;;;;;;5045878;28;20417;-21
2022/02/28 09:14:51;;;;;;;2.75;2.17;;;17.40;60.90;;;;;;5040673;28;20088;-22
2022/02/28 09:17:17;;;;;;;1.83;1.73;;;17.40;60.80;;;;;;5054479;28;20574;-23
2022/02/28 09:19:42;;;;;;;1.77;1.67;;;17.30;60.90;;;;;;5057494;28;20139;-21
2022/02/28 09:22:08;;;;;;;1.95;1.85;;;17.30;60.90;;;;;;5042051;28;20414;-21
2022/02/28 09:24:33;;;;;;;2.05;1.67;;;17.30;61.00;;;;;;5050621;28;20052;-21
2022/02/28 09:27:03;;;;;;;2.97;1.55;;;17.30;61.20;;;;;;5047649;28;20119;-21
2022/02/28 09:29:29;;;;;;;1.80;1.70;;;17.30;61.20;;;;;;5054312;28;20065;-21
2022/02/28 09:31:56;;;;;;;1.77;1.40;;;17.40;61.10;;;;;;5044037;28;20102;-21
2022/02/28 09:34:21;;;;;;;1.88;1.63;;;17.40;60.90;;;;;;5040004;28;20052;-21
2022/02/28 09:36:47;;;;;;;2.10;1.48;;;17.40;60.80;;;;;;5041024;28;20528;-21
2022/02/28 09:39:13;;;;;;;2.05;1.75;;;17.50;60.80;;;;;;5047977;28;20135;-21
2022/02/28 09:41:39;;;;;;;1.70;1.60;;;17.40;60.80;;;;;;5043520;28;20542;-21
2022/02/28 09:44:05;;;;;;;2.10;1.90;;;17.40;60.70;;;;;;5039457;28;20053;-21
2022/02/28 09:46:32;;;;;;;5.10;1.65;;;17.40;61.00;;;;;;5051022;28;20052;-21
2022/02/28 09:48:57;;;;;;;3.75;1.63;;;17.40;60.80;;;;;;5043729;28;20405;-21
2022/02/28 09:51:23;;;;;;;2.42;1.77;;;17.40;61.10;;;;;;5047162;28;20057;-21
2022/02/28 09:53:48;;;;;;;3.42;1.80;;;17.40;60.90;;;;;;5045813;28;20060;-21
2022/02/28 09:56:14;;;;;;;1.88;1.42;;;17.40;61.10;;;;;;5046684;28;20521;-21
2022/02/28 09:58:39;;;;;;;1.38;1.27;;;17.40;61.10;;;;;;5044348;28;20053;-21
2022/02/28 10:01:05;;;;;;;1.70;1.60;;;17.50;60.90;;;;;;5046873;28;20107;-21
2022/02/28 10:03:31;;;;;;;1.67;1.58;;;17.50;60.70;;;;;;5045631;28;20128;-21
2022/02/28 10:06:02;;;;;;;2.20;1.77;;;17.60;60.70;;;;;;5049417;28;20048;-21
2022/02/28 10:08:43;;;;;;;1.90;1.30;;;17.60;60.40;;;;;;5042515;28;20053;-22
2022/02/28 10:11:29;;;;;;;1.70;1.33;;;17.60;60.60;;;;;;5042715;28;20058;-21
2022/02/28 10:13:56;;;;;;;2.92;2.13;;;17.60;60.50;;;;;;5051456;28;20097;-21
2022/02/28 10:16:35;;;;;;;5.28;1.60;;;17.60;60.30;;;;;;5054564;28;20067;-21
2022/02/28 10:19:02;;;;;;;1.70;1.60;;;17.70;60.20;;;;;;5049494;28;20049;-21
2022/02/28 10:21:47;;;;;;;1.65;1.55;;;17.70;60.30;;;;;;5053307;28;20494;-21
2022/02/28 10:24:17;;;;;;;1.88;1.65;;;17.70;60.30;;;;;;5054229;28;20084;-22
2022/02/28 10:26:55;;;;;;;1.98;1.30;;;17.70;60.10;;;;;;5057280;28;20076;-21
2022/02/28 10:29:21;;;;;;;1.60;1.50;;;17.70;60.30;;;;;;5045861;28;20556;-21
2022/02/28 10:31:46;;;;;;;1.67;1.58;;;17.70;60.10;;;;;;5044016;28;20053;-21
2022/02/28 10:34:22;;;;;;;1.90;1.80;;;17.70;60.10;;;;;;5042742;28;20065;-21
2022/02/28 10:36:57;;;;;;;1.40;1.30;;;17.70;60.10;;;;;;5061422;28;20521;-21
2022/02/28 10:39:32;;;;;;;1.67;1.58;;;17.70;60.10;;;;;;5043445;28;20048;-21
2022/02/28 10:42:12;;;;;;;1.58;1.48;;;17.60;60.30;;;;;;5054873;28;21676;-24
2022/02/28 10:44:38;;;;;;;1.40;1.30;;;17.60;60.20;;;;;;5044947;28;20157;-21
2022/02/28 10:47:06;;;;;;;1.65;1.45;;;17.60;60.20;;;;;;5044780;28;20044;-21
2022/02/28 10:49:33;;;;;;;1.55;1.45;;;17.60;60.30;;;;;;5059188;28;20052;-21
2022/02/28 10:52:10;;;;;;;1.65;1.50;;;17.60;60.40;;;;;;5045875;28;20103;-21
2022/02/28 10:54:39;;;;;;;1.35;1.25;;;17.60;60.30;;;;;;5053816;28;20699;-21
2022/02/28 10:57:07;;;;;;;1.77;1.38;;;17.60;60.40;;;;;;5042612;28;20063;-22
2022/02/28 10:59:49;;;;;;;1.70;1.60;;;17.50;60.50;;;;;;5049995;28;20064;-21
2022/02/28 11:02:31;;;;;;;1.63;1.50;;;17.50;60.60;;;;;;5053133;28;20053;-21
2022/02/28 11:05:18;;;;;;;1.40;1.30;;;17.50;60.50;;;;;;5051420;28;20053;-21
2022/02/28 11:07:46;;;;;;;1.50;1.40;;;17.50;60.80;;;;;;5055238;28;20056;-23
2022/02/28 11:10:12;;;;;;;1.50;1.40;;;17.50;60.50;;;;;;5050187;28;20048;-23
2022/02/28 11:12:37;;;;;;;1.40;1.30;;;17.60;60.20;;;;;;5052981;28;20056;-23
2022/02/28 11:15:07;;;;;;;1.27;1.17;;;17.50;60.50;;;;;;5050013;28;20128;-23
2022/02/28 11:17:34;;;;;;;1.38;1.27;;;17.60;60.60;;;;;;5055042;28;20056;-23
2022/02/28 11:20:06;;;;;;;1.40;1.30;;;17.60;60.20;;;;;;5053808;28;20056;-24
2022/02/28 11:22:31;;;;;;;1.10;1.00;;;17.50;60.50;;;;;;5053045;28;20109;-25
2022/02/28 11:24:57;;;;;;;1.25;1.15;;;17.50;61.00;;;;;;5050108;28;20044;-23
2022/02/28 11:27:23;;;;;;;1.40;1.30;;;17.50;60.50;;;;;;5050091;28;20056;-23
2022/02/28 11:29:57;;;;;;;1.50;1.40;;;17.60;60.60;;;;;;5052796;28;20040;-24
2022/02/28 11:32:24;;;;;;;1.40;1.30;;;17.60;60.20;;;;;;5050597;28;20087;-24
2022/02/28 11:34:52;;;;;;;1.45;1.35;;;17.50;60.30;;;;;;5052137;28;20053;-24
2022/02/28 11:37:25;;;;;;;2.28;1.30;;;17.40;60.70;;;;;;5053614;28;20849;-23
2022/02/28 11:39:55;;;;;;;1.40;1.30;;;17.40;60.70;;;;;;5053058;28;20363;-23
2022/02/28 11:42:59;;;;;;;2.03;1.50;;;17.50;60.90;;;;;;5058805;28;20052;-23
2022/02/28 11:45:25;;;;;;;1.10;1.00;;;17.60;60.60;;;;;;5058995;28;20037;-24
2022/02/28 11:48:11;;;;;;;1.60;1.50;;;17.50;60.60;;;;;;5058790;28;20059;-21
2022/02/28 11:50:58;;;;;;;1.33;1.23;;;17.60;60.60;;;;;;4704024;28;9999695;-23
2022/02/28 11:53:43;;;;;;;1.33;1.00;;;17.70;60.00;;;;;;5049891;28;20048;-23
2022/02/28 11:56:18;;;;;;;1.20;1.10;;;17.70;60.20;;;;;;5048223;28;20044;-23
2022/02/28 11:59:02;;;;;;;1.50;1.40;;;17.70;60.10;;;;;;5050994;28;20135;-23
2022/02/28 12:01:28;;;;;;;1.45;1.35;;;17.60;60.30;;;;;;5040469;28;20057;-23
2022/02/28 12:04:16;;;;;;;1.58;1.20;;;17.70;60.50;;;;;;5047888;28;20048;-23
2022/02/28 12:06:49;;;;;;;1.13;1.13;;;17.80;60.10;;;;;;5042896;28;20049;-25
2022/02/28 12:09:35;;;;;;;1.42;0.98;;;17.90;60.00;;;;;;5039144;28;20460;-23
2022/02/28 12:12:22;;;;;;;1.20;1.08;;;17.80;60.00;;;;;;5044207;28;20045;-23
2022/02/28 12:14:57;;;;;;;1.00;0.90;;;17.90;59.80;;;;;;5052155;28;20052;-23
2022/02/28 12:17:32;;;;;;;1.27;1.00;;;18.00;59.60;;;;;;5049126;28;20057;-23
2022/02/28 12:20:32;;;;;;;1.02;1.02;;;18.10;59.40;;;;;;5043774;28;20443;-24
2022/02/28 12:23:09;;;;;;;1.25;1.00;;;18.00;59.50;;;;;;5041725;28;20052;-23
2022/02/28 12:25:44;;;;;;;0.90;0.90;;;18.00;59.50;;;;;;5046764;28;20286;-24
2022/02/28 12:28:26;;;;;;;2.35;1.08;;;18.00;59.50;;;;;;5049027;28;20721;-24
2022/02/28 12:30:57;;;;;;;1.17;1.08;;;18.00;59.50;;;;;;5051901;28;20053;-23
2022/02/28 12:33:35;;;;;;;0.90;0.90;;;18.00;59.60;;;;;;5046096;28;20837;-23
2022/02/28 12:36:16;;;;;;;0.95;0.90;;;18.00;59.40;;;;;;5044087;28;20211;-23
2022/02/28 12:38:52;;;;;;;0.95;0.95;;;18.10;59.30;;;;;;5042213;28;20048;-24
2022/02/28 12:41:29;;;;;;;0.98;0.90;;;18.10;59.40;;;;;;5042145;28;20552;-23
2022/02/28 12:43:57;;;;;;;0.90;0.90;;;18.00;59.50;;;;;;5047453;28;20380;-23
2022/02/28 12:46:24;;;;;;;0.82;0.82;;;18.00;59.40;;;;;;5047526;28;20052;-21
2022/02/28 12:48:50;;;;;;;0.90;0.90;;;18.10;59.40;;;;;;5050358;28;20132;-23